sensor_id;sensor_type;location;lat;lon;timestamp;temperature;humidity
71879;DHT22;59755;43.834;4.364;2022-10-22T00:00:13;20.50;90.10
71879;DHT22;59755;43.834;4.364;2022-10-22T00:02:39;20.50;90.20
71879;DHT22;59755;43.834;4.364;2022-10-22T00:05:05;20.50;90.10
71879;DHT22;59755;43.834;4.364;2022-10-22T00:07:31;20.50;90.00
71879;DHT22;59755;43.834;4.364;2022-10-22T00:09:57;20.50;90.20
71879;DHT22;59755;43.834;4.364;2022-10-22T00:12:23;20.50;90.20
71879;DHT22;59755;43.834;4.364;2022-10-22T00:14:49;20.50;90.20
71879;DHT22;59755;43.834;4.364;2022-10-22T00:17:15;20.40;90.40
71879;DHT22;59755;43.834;4.364;2022-10-22T00:19:41;20.40;90.30
71879;DHT22;59755;43.834;4.364;2022-10-22T00:22:07;20.40;90.30
71879;DHT22;59755;43.834;4.364;2022-10-22T00:24:35;20.40;90.10
71879;DHT22;59755;43.834;4.364;2022-10-22T00:27:01;20.40;90.10
71879;DHT22;59755;43.834;4.364;2022-10-22T00:29:27;20.40;90.00
71879;DHT22;59755;43.834;4.364;2022-10-22T00:31:52;20.40;90.20
71879;DHT22;59755;43.834;4.364;2022-10-22T00:34:19;20.40;90.10
71879;DHT22;59755;43.834;4.364;2022-10-22T00:36:46;20.40;90.10
71879;DHT22;59755;43.834;4.364;2022-10-22T00:39:14;20.40;90.10
71879;DHT22;59755;43.834;4.364;2022-10-22T00:41:41;20.30;90.20
71879;DHT22;59755;43.834;4.364;2022-10-22T00:44:57;20.30;90.10
71879;DHT22;59755;43.834;4.364;2022-10-22T00:46:53;20.30;90.10
71879;DHT22;59755;43.834;4.364;2022-10-22T00:49:19;20.30;89.90
71879;DHT22;59755;43.834;4.364;2022-10-22T00:51:44;20.30;89.90
71879;DHT22;59755;43.834;4.364;2022-10-22T00:54:10;20.30;89.90
71879;DHT22;59755;43.834;4.364;2022-10-22T00:56:37;20.30;89.80
71879;DHT22;59755;43.834;4.364;2022-10-22T00:59:03;20.30;89.80
71879;DHT22;59755;43.834;4.364;2022-10-22T01:01:30;20.30;89.90
71879;DHT22;59755;43.834;4.364;2022-10-22T01:03:57;20.30;89.80
71879;DHT22;59755;43.834;4.364;2022-10-22T01:06:30;20.30;89.70
71879;DHT22;59755;43.834;4.364;2022-10-22T01:09:15;20.30;89.60
71879;DHT22;59755;43.834;4.364;2022-10-22T01:17:54;20.30;89.20
71879;DHT22;59755;43.834;4.364;2022-10-22T01:31:21;20.30;88.90
71879;DHT22;59755;43.834;4.364;2022-10-22T01:33:50;20.20;88.80
71879;DHT22;59755;43.834;4.364;2022-10-22T01:36:18;20.20;88.70
71879;DHT22;59755;43.834;4.364;2022-10-22T01:38:45;20.20;88.80
71879;DHT22;59755;43.834;4.364;2022-10-22T01:41:11;20.20;88.80
71879;DHT22;59755;43.834;4.364;2022-10-22T01:43:37;20.20;88.70
71879;DHT22;59755;43.834;4.364;2022-10-22T01:46:04;20.20;88.70
71879;DHT22;59755;43.834;4.364;2022-10-22T01:49:09;20.20;88.70
71879;DHT22;59755;43.834;4.364;2022-10-22T01:55:09;20.20;88.70
71879;DHT22;59755;43.834;4.364;2022-10-22T02:00:13;20.20;88.50
71879;DHT22;59755;43.834;4.364;2022-10-22T02:02:48;20.10;88.60
71879;DHT22;59755;43.834;4.364;2022-10-22T02:05:22;20.10;88.50
71879;DHT22;59755;43.834;4.364;2022-10-22T02:07:59;20.10;88.50
71879;DHT22;59755;43.834;4.364;2022-10-22T02:10:26;20.10;88.70
71879;DHT22;59755;43.834;4.364;2022-10-22T02:12:55;20.20;88.50
71879;DHT22;59755;43.834;4.364;2022-10-22T02:15:23;20.10;88.30
71879;DHT22;59755;43.834;4.364;2022-10-22T02:17:51;20.10;88.40
71879;DHT22;59755;43.834;4.364;2022-10-22T02:20:28;20.10;88.60
71879;DHT22;59755;43.834;4.364;2022-10-22T02:22:55;20.10;88.60
71879;DHT22;59755;43.834;4.364;2022-10-22T02:25:22;20.10;88.70
71879;DHT22;59755;43.834;4.364;2022-10-22T02:28:08;20.10;88.70
71879;DHT22;59755;43.834;4.364;2022-10-22T02:30:39;20.10;88.70
71879;DHT22;59755;43.834;4.364;2022-10-22T02:33:14;20.10;88.50
71879;DHT22;59755;43.834;4.364;2022-10-22T02:35:41;20.20;88.30
71879;DHT22;59755;43.834;4.364;2022-10-22T02:38:08;20.20;88.20
71879;DHT22;59755;43.834;4.364;2022-10-22T02:40:35;20.20;88.30
71879;DHT22;59755;43.834;4.364;2022-10-22T02:43:03;20.20;88.40
71879;DHT22;59755;43.834;4.364;2022-10-22T02:45:30;20.20;88.40
71879;DHT22;59755;43.834;4.364;2022-10-22T02:47:56;20.20;88.40
71879;DHT22;59755;43.834;4.364;2022-10-22T02:50:22;20.10;88.60
71879;DHT22;59755;43.834;4.364;2022-10-22T02:52:48;20.00;88.90
71879;DHT22;59755;43.834;4.364;2022-10-22T02:55:14;20.00;89.10
71879;DHT22;59755;43.834;4.364;2022-10-22T02:57:40;20.00;89.10
71879;DHT22;59755;43.834;4.364;2022-10-22T03:00:07;20.00;89.10
71879;DHT22;59755;43.834;4.364;2022-10-22T03:02:34;20.00;89.10
71879;DHT22;59755;43.834;4.364;2022-10-22T03:04:59;20.00;89.00
71879;DHT22;59755;43.834;4.364;2022-10-22T03:07:25;20.10;88.80
71879;DHT22;59755;43.834;4.364;2022-10-22T03:09:51;20.10;88.60
71879;DHT22;59755;43.834;4.364;2022-10-22T03:12:17;20.10;88.70
71879;DHT22;59755;43.834;4.364;2022-10-22T03:14:43;20.10;88.60
71879;DHT22;59755;43.834;4.364;2022-10-22T03:17:08;20.10;88.70
71879;DHT22;59755;43.834;4.364;2022-10-22T03:19:34;20.10;88.60
71879;DHT22;59755;43.834;4.364;2022-10-22T03:22:10;20.10;88.50
71879;DHT22;59755;43.834;4.364;2022-10-22T03:24:46;20.20;88.40
71879;DHT22;59755;43.834;4.364;2022-10-22T03:27:14;20.10;88.30
71879;DHT22;59755;43.834;4.364;2022-10-22T03:29:41;20.10;88.50
71879;DHT22;59755;43.834;4.364;2022-10-22T03:32:07;20.10;88.80
71879;DHT22;59755;43.834;4.364;2022-10-22T03:34:33;20.10;88.80
71879;DHT22;59755;43.834;4.364;2022-10-22T03:37:00;20.10;88.70
71879;DHT22;59755;43.834;4.364;2022-10-22T03:39:28;20.10;88.80
71879;DHT22;59755;43.834;4.364;2022-10-22T03:41:54;20.10;88.70
71879;DHT22;59755;43.834;4.364;2022-10-22T03:44:21;20.00;88.60
71879;DHT22;59755;43.834;4.364;2022-10-22T03:46:47;20.00;88.60
71879;DHT22;59755;43.834;4.364;2022-10-22T03:49:12;20.00;88.60
71879;DHT22;59755;43.834;4.364;2022-10-22T03:51:38;20.00;88.30
71879;DHT22;59755;43.834;4.364;2022-10-22T03:54:04;20.00;88.30
71879;DHT22;59755;43.834;4.364;2022-10-22T03:56:30;20.00;88.40
71879;DHT22;59755;43.834;4.364;2022-10-22T03:58:57;20.00;88.40
71879;DHT22;59755;43.834;4.364;2022-10-22T04:01:24;20.00;88.60
71879;DHT22;59755;43.834;4.364;2022-10-22T04:03:50;20.00;88.40
71879;DHT22;59755;43.834;4.364;2022-10-22T04:06:16;20.10;88.30
71879;DHT22;59755;43.834;4.364;2022-10-22T04:08:43;20.00;88.20
71879;DHT22;59755;43.834;4.364;2022-10-22T04:11:10;20.10;88.30
71879;DHT22;59755;43.834;4.364;2022-10-22T04:13:36;20.00;88.30
71879;DHT22;59755;43.834;4.364;2022-10-22T04:18:39;20.00;88.70
71879;DHT22;59755;43.834;4.364;2022-10-22T04:21:06;20.00;88.70
71879;DHT22;59755;43.834;4.364;2022-10-22T04:23:32;20.00;88.70
71879;DHT22;59755;43.834;4.364;2022-10-22T04:25:59;19.90;89.10
71879;DHT22;59755;43.834;4.364;2022-10-22T04:28:25;19.90;89.10
71879;DHT22;59755;43.834;4.364;2022-10-22T04:30:50;19.90;89.30
71879;DHT22;59755;43.834;4.364;2022-10-22T04:33:16;19.90;89.20
71879;DHT22;59755;43.834;4.364;2022-10-22T04:35:42;19.90;89.10
71879;DHT22;59755;43.834;4.364;2022-10-22T04:38:08;19.80;89.40
71879;DHT22;59755;43.834;4.364;2022-10-22T04:40:33;19.80;89.60
71879;DHT22;59755;43.834;4.364;2022-10-22T04:42:59;19.80;89.80
71879;DHT22;59755;43.834;4.364;2022-10-22T04:45:25;19.80;89.90
71879;DHT22;59755;43.834;4.364;2022-10-22T04:47:51;19.80;90.00
71879;DHT22;59755;43.834;4.364;2022-10-22T04:50:16;19.70;90.10
71879;DHT22;59755;43.834;4.364;2022-10-22T04:52:42;19.70;90.20
71879;DHT22;59755;43.834;4.364;2022-10-22T04:55:08;19.70;90.00
71879;DHT22;59755;43.834;4.364;2022-10-22T04:57:34;19.70;90.10
71879;DHT22;59755;43.834;4.364;2022-10-22T05:00:00;19.70;90.00
71879;DHT22;59755;43.834;4.364;2022-10-22T05:02:25;19.70;89.90
71879;DHT22;59755;43.834;4.364;2022-10-22T05:04:51;19.70;89.90
71879;DHT22;59755;43.834;4.364;2022-10-22T05:07:17;19.70;89.90
71879;DHT22;59755;43.834;4.364;2022-10-22T05:09:43;19.70;89.80
71879;DHT22;59755;43.834;4.364;2022-10-22T05:12:08;19.70;89.70
71879;DHT22;59755;43.834;4.364;2022-10-22T05:14:34;19.70;90.00
71879;DHT22;59755;43.834;4.364;2022-10-22T05:17:00;19.70;89.80
71879;DHT22;59755;43.834;4.364;2022-10-22T05:19:28;19.60;89.90
71879;DHT22;59755;43.834;4.364;2022-10-22T05:21:56;19.60;89.90
71879;DHT22;59755;43.834;4.364;2022-10-22T05:24:23;19.60;90.10
71879;DHT22;59755;43.834;4.364;2022-10-22T05:26:54;19.60;90.20
71879;DHT22;59755;43.834;4.364;2022-10-22T05:29:21;19.50;90.50
71879;DHT22;59755;43.834;4.364;2022-10-22T05:31:47;19.60;90.20
71879;DHT22;59755;43.834;4.364;2022-10-22T05:34:13;19.50;90.20
71879;DHT22;59755;43.834;4.364;2022-10-22T05:36:39;19.60;90.10
71879;DHT22;59755;43.834;4.364;2022-10-22T05:39:05;19.60;89.90
71879;DHT22;59755;43.834;4.364;2022-10-22T05:41:32;19.50;90.10
71879;DHT22;59755;43.834;4.364;2022-10-22T05:43:59;19.50;90.20
71879;DHT22;59755;43.834;4.364;2022-10-22T05:46:27;19.50;90.30
71879;DHT22;59755;43.834;4.364;2022-10-22T05:48:59;19.40;90.60
71879;DHT22;59755;43.834;4.364;2022-10-22T05:51:27;19.40;90.80
71879;DHT22;59755;43.834;4.364;2022-10-22T05:53:55;19.40;90.70
71879;DHT22;59755;43.834;4.364;2022-10-22T05:56:22;19.40;90.50
71879;DHT22;59755;43.834;4.364;2022-10-22T05:58:48;19.40;90.30
71879;DHT22;59755;43.834;4.364;2022-10-22T06:01:19;19.40;90.10
71879;DHT22;59755;43.834;4.364;2022-10-22T06:03:45;19.40;90.00
71879;DHT22;59755;43.834;4.364;2022-10-22T06:09:00;19.30;90.20
71879;DHT22;59755;43.834;4.364;2022-10-22T06:11:26;19.30;90.30
71879;DHT22;59755;43.834;4.364;2022-10-22T06:13:52;19.30;90.30
71879;DHT22;59755;43.834;4.364;2022-10-22T06:16:18;19.30;90.20
71879;DHT22;59755;43.834;4.364;2022-10-22T06:18:44;19.30;89.90
71879;DHT22;59755;43.834;4.364;2022-10-22T06:21:12;19.30;89.80
71879;DHT22;59755;43.834;4.364;2022-10-22T06:23:39;19.30;89.50
71879;DHT22;59755;43.834;4.364;2022-10-22T06:26:05;19.30;89.30
71879;DHT22;59755;43.834;4.364;2022-10-22T06:28:32;19.30;89.70
71879;DHT22;59755;43.834;4.364;2022-10-22T06:30:59;19.20;89.60
71879;DHT22;59755;43.834;4.364;2022-10-22T06:33:26;19.30;89.50
71879;DHT22;59755;43.834;4.364;2022-10-22T06:35:52;19.20;89.70
71879;DHT22;59755;43.834;4.364;2022-10-22T06:38:18;19.20;89.90
71879;DHT22;59755;43.834;4.364;2022-10-22T06:40:43;19.30;89.50
71879;DHT22;59755;43.834;4.364;2022-10-22T06:43:10;19.20;89.70
71879;DHT22;59755;43.834;4.364;2022-10-22T06:45:36;19.20;89.80
71879;DHT22;59755;43.834;4.364;2022-10-22T06:48:02;19.20;89.90
71879;DHT22;59755;43.834;4.364;2022-10-22T06:50:27;19.20;89.90
71879;DHT22;59755;43.834;4.364;2022-10-22T06:52:53;19.30;90.00
71879;DHT22;59755;43.834;4.364;2022-10-22T06:55:19;19.30;89.50
71879;DHT22;59755;43.834;4.364;2022-10-22T06:57:45;19.40;89.40
71879;DHT22;59755;43.834;4.364;2022-10-22T07:00:11;19.40;89.20
71879;DHT22;59755;43.834;4.364;2022-10-22T07:02:37;19.40;89.30
71879;DHT22;59755;43.834;4.364;2022-10-22T07:05:02;19.40;89.50
71879;DHT22;59755;43.834;4.364;2022-10-22T07:07:28;19.40;89.40
71879;DHT22;59755;43.834;4.364;2022-10-22T07:09:54;19.40;89.40
71879;DHT22;59755;43.834;4.364;2022-10-22T07:12:19;19.40;89.30
71879;DHT22;59755;43.834;4.364;2022-10-22T07:14:45;19.40;89.40
71879;DHT22;59755;43.834;4.364;2022-10-22T07:17:11;19.50;89.10
71879;DHT22;59755;43.834;4.364;2022-10-22T07:19:37;19.50;89.00
71879;DHT22;59755;43.834;4.364;2022-10-22T07:22:02;19.50;88.90
71879;DHT22;59755;43.834;4.364;2022-10-22T07:24:28;19.50;88.70
71879;DHT22;59755;43.834;4.364;2022-10-22T07:26:54;19.50;88.90
71879;DHT22;59755;43.834;4.364;2022-10-22T07:29:20;19.60;88.50
71879;DHT22;59755;43.834;4.364;2022-10-22T07:31:45;19.50;88.80
71879;DHT22;59755;43.834;4.364;2022-10-22T07:34:11;19.60;88.60
71879;DHT22;59755;43.834;4.364;2022-10-22T07:36:37;19.60;88.40
71879;DHT22;59755;43.834;4.364;2022-10-22T07:39:03;19.60;88.50
71879;DHT22;59755;43.834;4.364;2022-10-22T07:41:29;19.60;88.40
71879;DHT22;59755;43.834;4.364;2022-10-22T07:43:56;19.70;88.20
71879;DHT22;59755;43.834;4.364;2022-10-22T07:46:23;19.70;88.10
71879;DHT22;59755;43.834;4.364;2022-10-22T07:48:49;19.80;87.90
71879;DHT22;59755;43.834;4.364;2022-10-22T07:51:15;19.80;87.70
71879;DHT22;59755;43.834;4.364;2022-10-22T07:53:41;19.90;87.50
71879;DHT22;59755;43.834;4.364;2022-10-22T07:56:07;20.00;87.10
71879;DHT22;59755;43.834;4.364;2022-10-22T07:58:33;20.10;86.90
71879;DHT22;59755;43.834;4.364;2022-10-22T08:01:00;20.00;86.80
71879;DHT22;59755;43.834;4.364;2022-10-22T08:03:27;20.10;86.90
71879;DHT22;59755;43.834;4.364;2022-10-22T08:05:54;20.10;86.90
71879;DHT22;59755;43.834;4.364;2022-10-22T08:08:20;20.10;86.80
71879;DHT22;59755;43.834;4.364;2022-10-22T08:10:47;20.10;86.80
71879;DHT22;59755;43.834;4.364;2022-10-22T08:13:15;20.10;86.80
71879;DHT22;59755;43.834;4.364;2022-10-22T08:15:41;20.10;86.70
71879;DHT22;59755;43.834;4.364;2022-10-22T08:18:07;20.10;87.00
71879;DHT22;59755;43.834;4.364;2022-10-22T08:20:33;20.20;87.00
71879;DHT22;59755;43.834;4.364;2022-10-22T08:22:59;20.20;86.90
71879;DHT22;59755;43.834;4.364;2022-10-22T08:25:25;20.20;86.80
71879;DHT22;59755;43.834;4.364;2022-10-22T08:27:51;20.20;86.80
71879;DHT22;59755;43.834;4.364;2022-10-22T08:30:17;20.20;86.90
71879;DHT22;59755;43.834;4.364;2022-10-22T08:32:42;20.30;86.60
71879;DHT22;59755;43.834;4.364;2022-10-22T08:35:08;20.30;86.50
71879;DHT22;59755;43.834;4.364;2022-10-22T08:37:34;20.20;86.90
71879;DHT22;59755;43.834;4.364;2022-10-22T08:40:00;20.20;86.80
71879;DHT22;59755;43.834;4.364;2022-10-22T08:50:34;20.50;86.20
71879;DHT22;59755;43.834;4.364;2022-10-22T08:53:14;20.50;85.90
71879;DHT22;59755;43.834;4.364;2022-10-22T08:55:41;20.60;85.70
71879;DHT22;59755;43.834;4.364;2022-10-22T08:59:01;20.60;85.50
71879;DHT22;59755;43.834;4.364;2022-10-22T09:01:13;20.60;85.50
71879;DHT22;59755;43.834;4.364;2022-10-22T09:03:53;20.60;85.50
71879;DHT22;59755;43.834;4.364;2022-10-22T09:06:24;20.60;85.60
71879;DHT22;59755;43.834;4.364;2022-10-22T09:08:51;20.70;85.40
71879;DHT22;59755;43.834;4.364;2022-10-22T09:11:38;20.70;85.40
71879;DHT22;59755;43.834;4.364;2022-10-22T09:14:05;20.70;85.40
71879;DHT22;59755;43.834;4.364;2022-10-22T09:19:32;20.80;85.40
71879;DHT22;59755;43.834;4.364;2022-10-22T09:25:00;20.70;85.50
71879;DHT22;59755;43.834;4.364;2022-10-22T09:27:29;20.70;85.60
71879;DHT22;59755;43.834;4.364;2022-10-22T09:29:55;20.70;85.90
71879;DHT22;59755;43.834;4.364;2022-10-22T09:32:21;20.70;86.00
71879;DHT22;59755;43.834;4.364;2022-10-22T09:34:48;20.70;86.20
71879;DHT22;59755;43.834;4.364;2022-10-22T09:37:19;20.70;86.30
71879;DHT22;59755;43.834;4.364;2022-10-22T09:39:53;20.70;86.00
71879;DHT22;59755;43.834;4.364;2022-10-22T09:42:20;20.70;86.20
71879;DHT22;59755;43.834;4.364;2022-10-22T09:44:54;20.80;86.00
71879;DHT22;59755;43.834;4.364;2022-10-22T09:47:39;20.90;85.60
71879;DHT22;59755;43.834;4.364;2022-10-22T09:50:19;20.90;85.10
71879;DHT22;59755;43.834;4.364;2022-10-22T09:52:56;21.00;85.00
71879;DHT22;59755;43.834;4.364;2022-10-22T09:55:24;20.90;85.30
71879;DHT22;59755;43.834;4.364;2022-10-22T09:57:55;20.90;85.20
71879;DHT22;59755;43.834;4.364;2022-10-22T10:00:21;21.00;85.30
71879;DHT22;59755;43.834;4.364;2022-10-22T10:02:56;21.00;85.10
71879;DHT22;59755;43.834;4.364;2022-10-22T10:05:29;21.00;85.10
71879;DHT22;59755;43.834;4.364;2022-10-22T10:07:55;20.90;85.30
71879;DHT22;59755;43.834;4.364;2022-10-22T10:10:55;21.00;85.30
71879;DHT22;59755;43.834;4.364;2022-10-22T10:13:40;21.00;85.10
71879;DHT22;59755;43.834;4.364;2022-10-22T10:22:16;21.10;85.00
71879;DHT22;59755;43.834;4.364;2022-10-22T10:27:42;21.40;83.80
71879;DHT22;59755;43.834;4.364;2022-10-22T10:30:18;21.40;83.10
71879;DHT22;59755;43.834;4.364;2022-10-22T10:38:14;21.80;81.40
71879;DHT22;59755;43.834;4.364;2022-10-22T10:40:50;21.80;81.10
71879;DHT22;59755;43.834;4.364;2022-10-22T10:43:23;21.90;80.80
71879;DHT22;59755;43.834;4.364;2022-10-22T10:51:07;22.00;80.30
71879;DHT22;59755;43.834;4.364;2022-10-22T10:56:44;21.90;80.50
71879;DHT22;59755;43.834;4.364;2022-10-22T11:02:01;21.80;81.20
71879;DHT22;59755;43.834;4.364;2022-10-22T11:07:37;21.70;81.50
71879;DHT22;59755;43.834;4.364;2022-10-22T11:10:19;21.70;81.40
71879;DHT22;59755;43.834;4.364;2022-10-22T11:12:49;21.70;81.50
71879;DHT22;59755;43.834;4.364;2022-10-22T11:18:34;21.70;81.40
71879;DHT22;59755;43.834;4.364;2022-10-22T11:21:26;21.60;81.80
71879;DHT22;59755;43.834;4.364;2022-10-22T11:26:46;21.70;81.50
71879;DHT22;59755;43.834;4.364;2022-10-22T11:29:39;21.70;81.60
71879;DHT22;59755;43.834;4.364;2022-10-22T11:32:11;21.70;81.40
71879;DHT22;59755;43.834;4.364;2022-10-22T11:34:46;21.70;81.40
71879;DHT22;59755;43.834;4.364;2022-10-22T11:37:13;21.70;81.10
71879;DHT22;59755;43.834;4.364;2022-10-22T11:39:50;21.80;81.40
71879;DHT22;59755;43.834;4.364;2022-10-22T11:42:21;22.00;80.50
71879;DHT22;59755;43.834;4.364;2022-10-22T11:47:50;22.40;77.60
71879;DHT22;59755;43.834;4.364;2022-10-22T11:53:20;22.60;76.60
71879;DHT22;59755;43.834;4.364;2022-10-22T11:55:56;22.70;75.60
71879;DHT22;59755;43.834;4.364;2022-10-22T11:58:34;22.80;75.30
71879;DHT22;59755;43.834;4.364;2022-10-22T12:01:27;22.90;74.30
71879;DHT22;59755;43.834;4.364;2022-10-22T12:06:50;22.90;73.20
71879;DHT22;59755;43.834;4.364;2022-10-22T12:09:14;23.20;72.80
71879;DHT22;59755;43.834;4.364;2022-10-22T12:11:46;23.30;72.40
71879;DHT22;59755;43.834;4.364;2022-10-22T12:16:52;23.30;71.70
71879;DHT22;59755;43.834;4.364;2022-10-22T12:24:34;23.50;71.20
71879;DHT22;59755;43.834;4.364;2022-10-22T12:27:01;24.00;69.70
71879;DHT22;59755;43.834;4.364;2022-10-22T12:29:26;24.40;68.10
71879;DHT22;59755;43.834;4.364;2022-10-22T12:31:53;24.50;66.90
71879;DHT22;59755;43.834;4.364;2022-10-22T12:34:23;24.70;66.30
71879;DHT22;59755;43.834;4.364;2022-10-22T12:36:52;24.30;66.50
71879;DHT22;59755;43.834;4.364;2022-10-22T12:39:25;24.20;66.60
71879;DHT22;59755;43.834;4.364;2022-10-22T12:41:52;24.10;67.30
71879;DHT22;59755;43.834;4.364;2022-10-22T12:44:18;23.70;68.10
71879;DHT22;59755;43.834;4.364;2022-10-22T12:46:46;23.60;68.40
71879;DHT22;59755;43.834;4.364;2022-10-22T12:49:22;23.80;67.60
71879;DHT22;59755;43.834;4.364;2022-10-22T12:51:49;23.90;67.10
71879;DHT22;59755;43.834;4.364;2022-10-22T12:54:25;24.10;66.30
71879;DHT22;59755;43.834;4.364;2022-10-22T12:56:53;24.30;65.00
71879;DHT22;59755;43.834;4.364;2022-10-22T12:59:32;24.10;66.00
71879;DHT22;59755;43.834;4.364;2022-10-22T13:01:59;24.20;65.60
71879;DHT22;59755;43.834;4.364;2022-10-22T13:07:14;24.40;64.60
71879;DHT22;59755;43.834;4.364;2022-10-22T13:09:43;24.40;64.80
71879;DHT22;59755;43.834;4.364;2022-10-22T13:12:10;24.70;64.60
71879;DHT22;59755;43.834;4.364;2022-10-22T13:14:42;24.60;64.90
71879;DHT22;59755;43.834;4.364;2022-10-22T13:24:58;24.20;64.80
71879;DHT22;59755;43.834;4.364;2022-10-22T13:27:26;23.90;65.40
71879;DHT22;59755;43.834;4.364;2022-10-22T13:29:53;23.80;65.60
71879;DHT22;59755;43.834;4.364;2022-10-22T13:32:29;23.70;66.30
71879;DHT22;59755;43.834;4.364;2022-10-22T13:35:00;23.60;66.40
71879;DHT22;59755;43.834;4.364;2022-10-22T13:37:28;23.50;67.00
71879;DHT22;59755;43.834;4.364;2022-10-22T13:39:54;23.50;67.50
71879;DHT22;59755;43.834;4.364;2022-10-22T13:42:20;23.60;67.00
71879;DHT22;59755;43.834;4.364;2022-10-22T13:44:45;23.60;66.80
71879;DHT22;59755;43.834;4.364;2022-10-22T13:47:28;23.60;67.00
71879;DHT22;59755;43.834;4.364;2022-10-22T13:49:59;23.70;66.70
71879;DHT22;59755;43.834;4.364;2022-10-22T13:52:35;23.80;66.40
71879;DHT22;59755;43.834;4.364;2022-10-22T13:55:01;23.70;65.90
71879;DHT22;59755;43.834;4.364;2022-10-22T13:57:34;23.60;65.80
71879;DHT22;59755;43.834;4.364;2022-10-22T14:00:00;23.60;66.30
71879;DHT22;59755;43.834;4.364;2022-10-22T14:02:25;23.50;66.50
71879;DHT22;59755;43.834;4.364;2022-10-22T14:04:52;23.50;66.70
71879;DHT22;59755;43.834;4.364;2022-10-22T14:07:18;23.60;66.50
71879;DHT22;59755;43.834;4.364;2022-10-22T14:09:44;23.60;66.30
71879;DHT22;59755;43.834;4.364;2022-10-22T14:12:15;23.60;66.40
71879;DHT22;59755;43.834;4.364;2022-10-22T14:14:41;23.70;66.30
71879;DHT22;59755;43.834;4.364;2022-10-22T14:17:14;23.90;65.90
71879;DHT22;59755;43.834;4.364;2022-10-22T14:19:46;24.00;66.00
71879;DHT22;59755;43.834;4.364;2022-10-22T14:22:17;24.00;65.80
71879;DHT22;59755;43.834;4.364;2022-10-22T14:24:44;24.00;65.50
71879;DHT22;59755;43.834;4.364;2022-10-22T14:27:12;24.10;65.40
71879;DHT22;59755;43.834;4.364;2022-10-22T14:29:38;24.00;64.80
71879;DHT22;59755;43.834;4.364;2022-10-22T14:32:14;24.00;65.10
71879;DHT22;59755;43.834;4.364;2022-10-22T14:34:40;24.00;64.10
71879;DHT22;59755;43.834;4.364;2022-10-22T14:37:15;23.90;64.20
71879;DHT22;59755;43.834;4.364;2022-10-22T14:39:41;23.80;63.40
71879;DHT22;59755;43.834;4.364;2022-10-22T14:42:10;23.70;64.30
71879;DHT22;59755;43.834;4.364;2022-10-22T14:44:36;23.60;64.60
71879;DHT22;59755;43.834;4.364;2022-10-22T14:47:01;23.60;64.70
71879;DHT22;59755;43.834;4.364;2022-10-22T14:49:27;23.50;65.40
71879;DHT22;59755;43.834;4.364;2022-10-22T14:51:53;23.40;66.30
71879;DHT22;59755;43.834;4.364;2022-10-22T14:54:18;23.20;67.20
71879;DHT22;59755;43.834;4.364;2022-10-22T14:56:44;23.20;67.20
71879;DHT22;59755;43.834;4.364;2022-10-22T14:59:10;23.20;67.20
71879;DHT22;59755;43.834;4.364;2022-10-22T15:01:36;23.10;68.10
71879;DHT22;59755;43.834;4.364;2022-10-22T15:04:03;23.00;68.60
71879;DHT22;59755;43.834;4.364;2022-10-22T15:06:29;22.90;68.90
71879;DHT22;59755;43.834;4.364;2022-10-22T15:08:55;22.90;69.20
71879;DHT22;59755;43.834;4.364;2022-10-22T15:11:20;22.90;69.90
71879;DHT22;59755;43.834;4.364;2022-10-22T15:13:46;22.90;69.60
71879;DHT22;59755;43.834;4.364;2022-10-22T15:16:14;22.80;69.20
71879;DHT22;59755;43.834;4.364;2022-10-22T15:18:40;22.80;68.40
71879;DHT22;59755;43.834;4.364;2022-10-22T15:21:15;22.80;67.80
71879;DHT22;59755;43.834;4.364;2022-10-22T15:23:41;22.80;68.00
71879;DHT22;59755;43.834;4.364;2022-10-22T15:26:08;22.80;68.60
71879;DHT22;59755;43.834;4.364;2022-10-22T15:28:35;22.80;68.50
71879;DHT22;59755;43.834;4.364;2022-10-22T15:31:01;22.80;68.40
71879;DHT22;59755;43.834;4.364;2022-10-22T15:33:28;22.70;67.50
71879;DHT22;59755;43.834;4.364;2022-10-22T15:35:54;22.70;67.30
71879;DHT22;59755;43.834;4.364;2022-10-22T15:38:20;22.70;67.60
71879;DHT22;59755;43.834;4.364;2022-10-22T15:40:46;22.60;67.60
71879;DHT22;59755;43.834;4.364;2022-10-22T15:43:12;22.60;67.10
71879;DHT22;59755;43.834;4.364;2022-10-22T15:45:38;22.60;67.20
71879;DHT22;59755;43.834;4.364;2022-10-22T15:48:04;22.50;67.90
71879;DHT22;59755;43.834;4.364;2022-10-22T15:50:30;22.50;68.10
71879;DHT22;59755;43.834;4.364;2022-10-22T15:52:56;22.40;68.90
71879;DHT22;59755;43.834;4.364;2022-10-22T15:55:22;22.30;69.10
71879;DHT22;59755;43.834;4.364;2022-10-22T15:57:48;22.30;69.60
71879;DHT22;59755;43.834;4.364;2022-10-22T16:00:19;22.30;70.30
71879;DHT22;59755;43.834;4.364;2022-10-22T16:02:45;22.20;70.40
71879;DHT22;59755;43.834;4.364;2022-10-22T16:05:11;22.20;70.00
71879;DHT22;59755;43.834;4.364;2022-10-22T16:07:37;22.20;70.30
71879;DHT22;59755;43.834;4.364;2022-10-22T16:10:03;22.10;70.70
71879;DHT22;59755;43.834;4.364;2022-10-22T16:12:29;22.10;70.90
71879;DHT22;59755;43.834;4.364;2022-10-22T16:14:55;22.00;71.30
71879;DHT22;59755;43.834;4.364;2022-10-22T16:17:21;22.00;72.00
71879;DHT22;59755;43.834;4.364;2022-10-22T16:19:47;21.90;72.30
71879;DHT22;59755;43.834;4.364;2022-10-22T16:22:12;21.90;72.70
71879;DHT22;59755;43.834;4.364;2022-10-22T16:24:40;21.80;73.40
71879;DHT22;59755;43.834;4.364;2022-10-22T16:27:06;21.80;73.80
71879;DHT22;59755;43.834;4.364;2022-10-22T16:29:32;21.80;74.30
71879;DHT22;59755;43.834;4.364;2022-10-22T16:31:58;21.80;74.80
71879;DHT22;59755;43.834;4.364;2022-10-22T16:34:26;21.70;75.60
71879;DHT22;59755;43.834;4.364;2022-10-22T16:36:51;21.70;76.30
71879;DHT22;59755;43.834;4.364;2022-10-22T16:39:18;21.60;76.90
71879;DHT22;59755;43.834;4.364;2022-10-22T16:41:43;21.60;77.10
71879;DHT22;59755;43.834;4.364;2022-10-22T16:44:09;21.50;77.50
71879;DHT22;59755;43.834;4.364;2022-10-22T16:46:36;21.50;77.70
71879;DHT22;59755;43.834;4.364;2022-10-22T16:49:03;21.50;77.90
71879;DHT22;59755;43.834;4.364;2022-10-22T16:51:29;21.40;77.90
71879;DHT22;59755;43.834;4.364;2022-10-22T16:53:56;21.40;78.10
71879;DHT22;59755;43.834;4.364;2022-10-22T16:56:22;21.40;78.20
71879;DHT22;59755;43.834;4.364;2022-10-22T16:58:54;21.40;78.30
71879;DHT22;59755;43.834;4.364;2022-10-22T17:01:20;21.40;78.50
71879;DHT22;59755;43.834;4.364;2022-10-22T17:03:47;21.30;78.70
71879;DHT22;59755;43.834;4.364;2022-10-22T17:06:13;21.30;78.80
71879;DHT22;59755;43.834;4.364;2022-10-22T17:08:40;21.20;79.00
71879;DHT22;59755;43.834;4.364;2022-10-22T17:11:16;21.20;78.90
71879;DHT22;59755;43.834;4.364;2022-10-22T17:13:43;21.20;78.90
71879;DHT22;59755;43.834;4.364;2022-10-22T17:16:10;21.20;79.00
71879;DHT22;59755;43.834;4.364;2022-10-22T17:18:38;21.20;79.10
71879;DHT22;59755;43.834;4.364;2022-10-22T17:21:06;21.10;79.40